Platzwetter Flugplatz Wels

Flugwetter Linz LOWL

[Quelle: ADDS]
METAR
LOWL 121750Z AUTO 13004KT 100V160 7000 BKN006 08/07 Q1022 NOSIG =
LOWL 121715Z 1218/1318 10004KT 7000 FEW005 OVC007 TX11/1314Z TN05/1300Z TEMPO 1220/1309 VRB02KT 2000 BR OVC003 PROB30 1222/1307 0500 FG VV001 BECMG 1310/1312 27005KT SCT007 BKN015 TEMPO 1312/1316 29010KT 9999 SCT012 SCT040
TAF
LOWL 121715Z 1218/1318 10004KT 7000 FEW005 OVC007 TX11/1314Z TN05/1300Z TEMPO 1220/1309 VRB02KT 2000 BR OVC003 PROB30 1222/1307 0500 FG VV001 BECMG 1310/1312 27005KT SCT007 BKN015 TEMPO 1312/1316 29010KT 9999 SCT012 SCT040 =

Flugwetter Salzburg LOWS

[Quelle: ADDS]
METAR
LOWS 121750Z 35004KT 9999 FEW005 08/06 Q1022 TEMPO 4000 BR =
LOWS 121715Z 1218/1318 16003KT 8000 FEW300 TX14/1313Z TN03/1304Z TEMPO 1220/1308 VRB02KT 2500 BR SCT003 PROB30 TEMPO 1300/1307 0400 BCFG BKN002 BECMG 1308/1310 33005KT 9999 FEW005 BKN300 TEMPO 1314/1318 32012KT -SHRA SCT030 BKN050
TAF
LOWS 121715Z 1218/1318 16003KT 8000 FEW300 TX14/1313Z TN03/1304Z TEMPO 1220/1308 VRB02KT 2500 BR SCT003 PROB30 TEMPO 1300/1307 0400 BCFG BKN002 BECMG 1308/1310 33005KT 9999 FEW005 BKN300 TEMPO 1314/1318 32012KT -SHRA SCT030 BKN050 =

Wind - Verlauf

Windrichtung - Verlauf

Temperatur - Verlauf

Relative Luftfeuchtigkeit - Verlauf

Luftdruck - Verlauf


JU 52 Nostalgie-Rundflüge - hier am Flugplatz Wels!

Tickets, Termine und Infos, hier am Flugplatz Wels. Tickethotline +43 7242 26499 0

Pilot für einen Tag - Erfülle Dir den Traum vom Fliegen!

Werde einen Tag lang Pilot bei und mit dem Fliegerclub Weiße Möwe in Wels!

Stadt - Wels

Ausflugsziele & Sehenswürdigkeiten
in Wels und Umgebung

Cookies erleichtern die Bereitstellung unserer Dienste. Mit der Nutzung unserer Dienste erklären Sie sich damit einverstanden, dass wir Cookies verwenden.
Weitere Informationen Ok